createdAt,value
2019-05-22T00:02:06.978Z,21.40
2019-05-22T00:07:16.498Z,19.40
2019-05-22T00:12:25.502Z,20.13
2019-05-22T00:17:34.544Z,19.30
2019-05-22T00:22:44.208Z,20.50
2019-05-22T00:27:55.075Z,21.60
2019-05-22T00:33:03.014Z,22.67
2019-05-22T00:38:12.362Z,22.87
2019-05-22T00:43:30.331Z,24.67
2019-05-22T00:48:42.204Z,25.07
2019-05-22T00:54:09.887Z,25.93
2019-05-22T00:59:25.421Z,25.07
2019-05-22T01:04:38.708Z,26.33
2019-05-22T01:09:47.720Z,26.47
2019-05-22T01:14:55.462Z,25.50
2019-05-22T01:20:05.304Z,27.00
2019-05-22T01:25:17.555Z,28.37
2019-05-22T01:30:47.016Z,27.37
2019-05-22T01:36:21.027Z,26.73
2019-05-22T01:41:33.313Z,25.40
2019-05-22T01:46:45.826Z,28.17
2019-05-22T01:51:56.122Z,27.47
2019-05-22T01:57:05.768Z,28.17
2019-05-22T02:02:16.656Z,29.13
2019-05-22T02:07:25.623Z,28.23
2019-05-22T02:12:55.215Z,27.93
2019-05-22T02:18:07.814Z,26.10
2019-05-22T02:23:17.377Z,22.57
2019-05-22T02:28:25.487Z,19.60
2019-05-22T02:33:34.472Z,18.80
2019-05-22T02:38:42.307Z,19.20
2019-05-22T02:43:50.191Z,21.10
2019-05-22T02:48:58.860Z,21.70
2019-05-22T02:54:07.162Z,22.80
2019-05-22T02:59:15.491Z,23.07
2019-05-22T03:04:24.777Z,23.40
2019-05-22T03:09:32.361Z,24.60
2019-05-22T03:14:41.387Z,22.90
2019-05-22T03:19:50.956Z,23.53
2019-05-22T03:25:02.311Z,18.67
2019-05-22T03:30:21.855Z,18.47
2019-05-22T03:35:31.884Z,16.67
2019-05-22T03:40:39.728Z,15.30
2019-05-22T03:45:48.196Z,16.07
2019-05-22T03:51:07.379Z,15.93
2019-05-22T03:56:18.509Z,14.03
2019-05-22T04:01:26.458Z,13.33
2019-05-22T04:06:34.478Z,12.70
2019-05-22T04:11:46.768Z,13.17
2019-05-22T04:16:55.628Z,14.13
2019-05-22T04:22:03.924Z,16.03
2019-05-22T04:27:12.284Z,16.90
2019-05-22T04:32:37.647Z,17.87
2019-05-22T04:37:47.355Z,19.37
2019-05-22T04:42:56.851Z,19.07
2019-05-22T04:48:05.697Z,19.80
2019-05-22T04:53:13.842Z,20.47
2019-05-22T04:58:32.232Z,17.70
2019-05-22T05:03:39.802Z,17.53
2019-05-22T05:08:47.389Z,24.60
2019-05-22T05:13:55.531Z,43.00
2019-05-22T05:19:03.252Z,34.13
2019-05-22T05:24:11.319Z,31.00
2019-05-22T05:29:31.328Z,28.73
2019-05-22T05:34:55.781Z,24.50
2019-05-22T05:40:39.679Z,23.10
2019-05-22T05:45:51.118Z,20.63
2019-05-22T05:51:45.920Z,20.83
2019-05-22T05:56:55.614Z,21.53
2019-05-22T06:02:04.902Z,23.20
2019-05-22T06:07:29.971Z,19.47
2019-05-22T06:12:38.016Z,21.57
2019-05-22T06:18:35.019Z,27.10
2019-05-22T06:24:25.845Z,27.27
2019-05-22T06:29:55.867Z,28.00
2019-05-22T06:35:05.025Z,28.17
2019-05-22T06:40:18.801Z,32.60
2019-05-22T06:45:27.509Z,31.40
2019-05-22T06:50:35.199Z,33.83
2019-05-22T06:55:44.533Z,36.47
2019-05-22T07:00:52.282Z,39.40
2019-05-22T07:05:59.801Z,37.23
2019-05-22T07:11:07.786Z,36.00
2019-05-22T07:16:15.985Z,35.60
2019-05-22T07:21:33.705Z,37.07
2019-05-22T07:26:32.906Z,34.27
2019-05-22T07:31:41.097Z,33.90
2019-05-22T07:36:48.495Z,34.17
2019-05-22T07:41:56.147Z,30.13
2019-05-22T07:47:05.590Z,28.57
2019-05-22T07:52:13.485Z,27.57
2019-05-22T07:57:25.429Z,30.10
2019-05-22T08:02:41.276Z,29.80
2019-05-22T08:07:50.797Z,31.37
2019-05-22T08:12:59.229Z,30.90
2019-05-22T08:18:06.671Z,29.63
2019-05-22T08:23:14.344Z,30.37
2019-05-22T08:28:23.970Z,30.43
2019-05-22T08:33:32.738Z,27.93
2019-05-22T08:38:42.247Z,24.37
2019-05-22T08:44:13.554Z,24.93
2019-05-22T08:49:00.017Z,27.37
2019-05-22T08:54:09.099Z,27.77
2019-05-22T08:59:19.875Z,25.97
2019-05-22T09:04:27.109Z,25.17
2019-05-22T09:09:35.010Z,26.40
2019-05-22T09:14:43.548Z,24.50
2019-05-22T09:19:51.537Z,23.83
2019-05-22T09:25:00.190Z,22.60
2019-05-22T09:30:09.591Z,19.17
2019-05-22T09:35:18.196Z,17.30
2019-05-22T09:40:26.017Z,16.70
2019-05-22T09:45:33.610Z,16.40
2019-05-22T09:50:42.090Z,15.33
2019-05-22T09:55:50.208Z,15.70
2019-05-22T10:00:58.027Z,16.53
2019-05-22T10:06:06.188Z,16.33
2019-05-22T10:11:15.333Z,17.03
2019-05-22T10:16:22.888Z,15.73
2019-05-22T10:21:30.955Z,17.00
2019-05-22T10:26:38.514Z,17.43
2019-05-22T10:31:46.475Z,17.80
2019-05-22T10:36:54.125Z,17.33
2019-05-22T10:42:01.597Z,18.23
2019-05-22T10:47:10.049Z,17.37
2019-05-22T10:52:17.674Z,18.00
2019-05-22T10:57:25.758Z,17.37
2019-05-22T11:02:33.649Z,17.53
2019-05-22T11:07:41.843Z,18.57
2019-05-22T11:12:49.560Z,20.30
2019-05-22T11:17:58.602Z,20.57
2019-05-22T11:23:07.464Z,20.17
2019-05-22T11:28:14.929Z,19.83
2019-05-22T11:33:22.526Z,19.27
2019-05-22T11:38:30.467Z,21.43
2019-05-22T11:43:38.246Z,20.23
2019-05-22T11:48:45.602Z,21.97
2019-05-22T11:54:08.097Z,20.90
2019-05-22T11:59:02.141Z,18.97
2019-05-22T12:04:12.537Z,18.37
2019-05-22T12:09:20.186Z,19.60
2019-05-22T12:14:27.705Z,19.70
2019-05-22T12:19:35.088Z,20.37
2019-05-22T12:24:42.719Z,20.13
2019-05-22T12:29:51.419Z,21.27
2019-05-22T12:34:59.216Z,20.13
2019-05-22T12:40:09.196Z,17.43
2019-05-22T12:45:19.035Z,17.07
2019-05-22T12:50:31.927Z,16.67
2019-05-22T12:55:39.806Z,15.57
2019-05-22T13:00:48.184Z,15.77
2019-05-22T13:05:56.328Z,16.07
2019-05-22T13:11:05.518Z,15.47
2019-05-22T13:16:14.828Z,14.27
2019-05-22T13:21:26.261Z,14.23
2019-05-22T13:26:36.948Z,13.37
2019-05-22T13:31:45.893Z,12.70
2019-05-22T13:36:56.880Z,11.83
2019-05-22T13:42:03.814Z,12.50
2019-05-22T13:47:12.685Z,12.27
2019-05-22T13:52:26.993Z,10.93
2019-05-22T13:57:34.385Z,11.83
2019-05-22T14:02:42.407Z,12.37
2019-05-22T14:07:51.131Z,12.57
2019-05-22T14:12:58.964Z,12.60
2019-05-22T14:18:07.079Z,12.67
2019-05-22T14:23:16.322Z,14.47
2019-05-22T14:28:26.898Z,12.70
2019-05-22T14:33:35.043Z,12.73
2019-05-22T14:38:43.543Z,13.13
2019-05-22T14:43:50.989Z,14.93
2019-05-22T14:48:58.738Z,14.50
2019-05-22T14:54:09.416Z,12.73
2019-05-22T14:59:17.783Z,13.70
2019-05-22T15:04:28.390Z,13.30
2019-05-22T15:09:36.143Z,13.83
2019-05-22T15:14:44.470Z,14.10
2019-05-22T15:19:52.143Z,13.57
2019-05-22T15:25:00.144Z,15.03
2019-05-22T15:30:09.744Z,13.93
2019-05-22T15:35:20.201Z,14.03
2019-05-22T15:40:28.871Z,13.80
2019-05-22T15:45:37.924Z,13.83
2019-05-22T15:50:48.297Z,13.40
2019-05-22T15:55:58.268Z,15.37
2019-05-22T16:01:08.399Z,15.20
2019-05-22T16:06:18.626Z,12.63
2019-05-22T16:11:30.101Z,14.77
2019-05-22T16:16:39.236Z,13.50
2019-05-22T16:21:52.885Z,14.63
2019-05-22T16:27:01.635Z,15.60
2019-05-22T16:32:14.178Z,16.10
2019-05-22T16:37:23.155Z,15.30
2019-05-22T16:42:34.284Z,15.57
2019-05-22T16:47:42.491Z,16.37
2019-05-22T16:52:50.422Z,17.83
2019-05-22T16:57:58.014Z,17.00
2019-05-22T17:03:06.586Z,16.27
2019-05-22T17:08:16.407Z,17.00
2019-05-22T17:13:24.863Z,17.20
2019-05-22T17:18:46.623Z,17.37
2019-05-22T17:23:45.599Z,18.37
2019-05-22T17:28:53.265Z,20.27
2019-05-22T17:34:02.387Z,19.90
2019-05-22T17:39:12.900Z,19.30
2019-05-22T17:44:21.583Z,19.30
2019-05-22T17:49:30.148Z,18.73
2019-05-22T17:54:37.561Z,20.10
2019-05-22T17:59:44.952Z,19.70
2019-05-22T18:04:52.732Z,21.63
2019-05-22T18:10:00.510Z,19.57
2019-05-22T18:15:10.175Z,23.60
2019-05-22T18:20:20.001Z,20.60
2019-05-22T18:25:27.757Z,19.00
2019-05-22T18:30:38.287Z,20.47
2019-05-22T18:35:45.855Z,18.30
2019-05-22T18:40:53.172Z,18.03
2019-05-22T18:46:01.082Z,18.73
2019-05-22T18:51:09.997Z,17.90
2019-05-22T18:56:17.421Z,17.00
2019-05-22T19:01:25.006Z,18.10
2019-05-22T19:06:32.380Z,16.83
2019-05-22T19:11:41.409Z,17.87
2019-05-22T19:16:48.923Z,17.70
2019-05-22T19:21:56.444Z,17.43
2019-05-22T19:27:03.985Z,17.30
2019-05-22T19:32:11.528Z,17.07
2019-05-22T19:37:20.035Z,16.03
2019-05-22T19:42:27.582Z,16.67
2019-05-22T19:47:35.353Z,16.53
2019-05-22T19:52:44.673Z,16.73
2019-05-22T19:57:52.648Z,16.10
2019-05-22T20:03:00.320Z,15.83
2019-05-22T20:08:10.521Z,16.27
2019-05-22T20:13:21.015Z,15.00
2019-05-22T20:18:28.993Z,14.33
2019-05-22T20:23:37.107Z,13.83
2019-05-22T20:28:44.601Z,14.47
2019-05-22T20:33:52.525Z,14.83
2019-05-22T20:39:01.518Z,13.97
2019-05-22T20:44:11.723Z,14.17
2019-05-22T20:49:20.064Z,12.10
2019-05-22T20:54:28.689Z,14.73
2019-05-22T20:59:36.399Z,13.17
2019-05-22T21:04:46.132Z,12.80
2019-05-22T21:09:54.360Z,13.70
2019-05-22T21:15:02.175Z,13.33
2019-05-22T21:20:13.935Z,13.67
2019-05-22T21:25:21.777Z,14.60
2019-05-22T21:30:30.177Z,13.70
2019-05-22T21:35:39.205Z,13.30
2019-05-22T21:40:46.623Z,13.43
2019-05-22T21:45:54.411Z,13.97
2019-05-22T21:51:01.907Z,13.37
2019-05-22T21:56:09.986Z,12.57
2019-05-22T22:01:26.105Z,13.00
2019-05-22T22:06:34.931Z,12.43
2019-05-22T22:11:44.029Z,12.90
2019-05-22T22:16:51.554Z,12.87
2019-05-22T22:21:59.603Z,13.00
2019-05-22T22:27:07.882Z,12.33
2019-05-22T22:32:17.565Z,12.80
2019-05-22T22:37:26.685Z,13.10
2019-05-22T22:42:36.940Z,12.80
2019-05-22T22:47:45.596Z,13.13
2019-05-22T22:52:53.086Z,11.97
2019-05-22T22:58:16.078Z,12.30
2019-05-22T23:03:14.619Z,11.20
2019-05-22T23:08:29.427Z,11.47
2019-05-22T23:13:37.622Z,12.23
2019-05-22T23:19:36.135Z,11.60
2019-05-22T23:24:43.945Z,11.33
2019-05-22T23:29:52.264Z,10.40
2019-05-22T23:35:01.366Z,10.77
2019-05-22T23:40:11.433Z,10.57
2019-05-22T23:45:22.221Z,10.23
2019-05-22T23:50:31.746Z,10.57
2019-05-22T23:55:41.162Z,10.50
